Time;durP1;ratioP1;P1;durP2;ratioP2;P2;SDS_P1;SDS_P2;PMS_P1;PMS_P2;Temp;Humidity;BMP_temperature;BMP_pressure;BME280_temperature;BME280_humidity;BME280_pressure;Samples;Min_cycle;Max_cycle;Signal;HPM_P1;HPM_P2
2023/03/15 00:02:04;;;;;;;2.90;1.70;;;;;;;;;;5124980;27;20096;-44
2023/03/15 00:04:34;;;;;;;3.92;1.90;;;;;;;;;;5124781;27;20023;-45
2023/03/15 00:07:01;;;;;;;2.83;1.58;;;;;;;;;;5125107;27;20043;-46
2023/03/15 00:09:27;;;;;;;3.42;1.75;;;;;;;;;;5124765;27;20054;-46
2023/03/15 00:11:54;;;;;;;4.47;2.05;;;;;;;;;;5105422;28;20039;-45
2023/03/15 00:14:20;;;;;;;5.60;2.10;;;;;;;;;;5104603;28;20039;-45
2023/03/15 00:16:46;;;;;;;9.60;4.15;;;;;;;;;;5104523;28;20422;-47
2023/03/15 00:19:13;;;;;;;9.00;3.97;;;;;;;;;;5104429;28;20106;-45
2023/03/15 00:21:41;;;;;;;10.55;4.35;;;;;;;;;;5103860;28;20383;-45
2023/03/15 00:24:10;;;;;;;8.13;4.22;;;;;;;;;;5118384;28;20023;-44
2023/03/15 00:26:36;;;;;;;6.75;3.45;;;;;;;;;;5124716;27;20023;-45
2023/03/15 00:29:02;;;;;;;8.07;3.88;;;;;;;;;;5126124;28;20212;-46
2023/03/15 00:31:28;;;;;;;7.22;4.15;;;;;;;;;;5125871;28;20156;-47
2023/03/15 00:33:55;;;;;;;10.00;4.95;;;;;;;;;;5126373;28;20039;-45
2023/03/15 00:36:25;;;;;;;10.50;5.72;;;;;;;;;;5126675;28;20035;-44
2023/03/15 00:38:52;;;;;;;12.88;7.47;;;;;;;;;;5126460;27;20021;-44
2023/03/15 00:41:19;;;;;;;11.63;6.88;;;;;;;;;;5126391;28;20030;-44
2023/03/15 00:43:46;;;;;;;10.52;5.60;;;;;;;;;;5125825;28;20030;-44
2023/03/15 00:46:13;;;;;;;8.63;5.30;;;;;;;;;;5126176;28;20027;-44
2023/03/15 00:48:39;;;;;;;5.70;3.83;;;;;;;;;;5125528;27;20047;-46
2023/03/15 00:51:12;;;;;;;6.18;3.70;;;;;;;;;;5126254;28;20055;-46
2023/03/15 00:53:39;;;;;;;5.63;3.50;;;;;;;;;;5125405;28;20114;-45
2023/03/15 00:56:07;;;;;;;5.95;3.05;;;;;;;;;;5126374;28;20063;-45
2023/03/15 00:58:33;;;;;;;5.50;3.13;;;;;;;;;;5125977;28;20019;-45
2023/03/15 01:01:00;;;;;;;5.47;3.05;;;;;;;;;;5125928;28;20456;-44
2023/03/15 01:03:26;;;;;;;4.65;2.65;;;;;;;;;;5126209;27;20058;-45
2023/03/15 06:10:53;;;;;;;3.30;1.30;;;;;;;;;;5125118;27;20070;-44
2023/03/15 06:13:19;;;;;;;3.53;1.85;;;;;;;;;;5129229;27;20065;-45
2023/03/15 06:15:48;;;;;;;3.05;1.83;;;;;;;;;;5130111;27;20438;-45
2023/03/15 06:18:16;;;;;;;3.60;1.90;;;;;;;;;;5130830;27;20015;-44
2023/03/15 06:20:43;;;;;;;4.35;1.90;;;;;;;;;;5130266;27;20023;-45
2023/03/15 06:23:09;;;;;;;6.93;3.92;;;;;;;;;;5122032;27;20024;-48
2023/03/15 06:25:35;;;;;;;7.18;4.10;;;;;;;;;;5128900;27;20552;-45
2023/03/15 06:28:01;;;;;;;5.03;3.22;;;;;;;;;;5129328;27;20024;-45
2023/03/15 06:30:28;;;;;;;6.10;3.47;;;;;;;;;;5110149;28;20559;-48
2023/03/15 06:32:54;;;;;;;4.70;2.55;;;;;;;;;;5110439;28;20104;-47
2023/03/15 06:35:21;;;;;;;3.03;2.00;;;;;;;;;;5110615;28;20023;-46
2023/03/15 06:37:47;;;;;;;4.65;2.22;;;;;;;;;;5121722;27;20030;-45
2023/03/15 06:40:13;;;;;;;4.07;1.67;;;;;;;;;;5131218;27;20035;-46
2023/03/15 06:42:40;;;;;;;4.07;2.10;;;;;;;;;;5131308;27;20011;-46
2023/03/15 06:45:08;;;;;;;3.08;1.70;;;;;;;;;;5130961;27;20027;-45
2023/03/15 06:47:35;;;;;;;5.00;1.65;;;;;;;;;;5131126;27;20102;-45
2023/03/15 06:50:01;;;;;;;2.95;1.50;;;;;;;;;;5130612;27;20098;-47
2023/03/15 06:52:27;;;;;;;3.45;1.38;;;;;;;;;;5131138;27;20033;-45
2023/03/15 06:54:53;;;;;;;4.85;2.15;;;;;;;;;;5129406;27;20511;-45
2023/03/15 06:57:19;;;;;;;5.43;3.30;;;;;;;;;;5130855;27;20410;-45
2023/03/15 06:59:45;;;;;;;8.32;3.85;;;;;;;;;;5130803;27;20025;-44
2023/03/15 07:02:16;;;;;;;4.85;3.17;;;;;;;;;;5131015;27;20084;-47
2023/03/15 07:04:43;;;;;;;5.60;3.10;;;;;;;;;;5130338;27;20027;-46
2023/03/15 07:07:10;;;;;;;6.60;3.13;;;;;;;;;;5130823;27;20139;-45
2023/03/15 07:09:36;;;;;;;7.22;3.72;;;;;;;;;;5130387;27;20031;-44
2023/03/15 07:12:02;;;;;;;4.13;2.72;;;;;;;;;;5129535;27;20020;-44
2023/03/15 07:14:28;;;;;;;4.47;3.05;;;;;;;;;;5130399;27;20688;-45
2023/03/15 07:16:54;;;;;;;7.05;4.88;;;;;;;;;;5130519;27;20015;-45
2023/03/15 07:19:20;;;;;;;6.93;4.57;;;;;;;;;;5130343;27;20048;-47
2023/03/15 07:21:46;;;;;;;5.40;3.88;;;;;;;;;;5130364;27;20061;-44
2023/03/15 07:24:12;;;;;;;5.72;3.75;;;;;;;;;;5130606;27;20031;-45
2023/03/15 07:26:38;;;;;;;4.57;3.33;;;;;;;;;;5130318;27;20035;-44
2023/03/15 07:29:04;;;;;;;5.20;3.00;;;;;;;;;;5130440;27;20102;-46
2023/03/15 07:31:30;;;;;;;4.75;2.65;;;;;;;;;;5129792;27;20023;-46
2023/03/15 07:33:56;;;;;;;4.38;2.53;;;;;;;;;;5130016;27;20073;-45
2023/03/15 07:36:23;;;;;;;2.38;2.00;;;;;;;;;;5129141;27;20023;-46
2023/03/15 07:38:49;;;;;;;2.55;1.70;;;;;;;;;;5129912;27;20079;-47
2023/03/15 07:41:16;;;;;;;2.30;1.60;;;;;;;;;;5129875;27;20015;-44
2023/03/15 07:43:42;;;;;;;5.05;2.40;;;;;;;;;;5130171;27;20031;-45
2023/03/15 07:46:08;;;;;;;3.60;2.03;;;;;;;;;;5129638;27;20026;-49
2023/03/15 07:48:34;;;;;;;3.47;1.90;;;;;;;;;;5129843;27;20462;-46
2023/03/15 07:51:00;;;;;;;3.00;1.80;;;;;;;;;;5129793;27;20023;-45
2023/03/15 07:53:26;;;;;;;4.50;1.80;;;;;;;;;;5129374;27;20530;-44
2023/03/15 07:55:53;;;;;;;2.35;1.63;;;;;;;;;;5129889;27;20072;-45
2023/03/15 07:58:19;;;;;;;2.65;1.80;;;;;;;;;;5129556;27;20021;-45
2023/03/15 08:00:45;;;;;;;3.38;1.52;;;;;;;;;;5120823;27;20023;-48
2023/03/15 08:03:11;;;;;;;2.42;1.52;;;;;;;;;;5130138;27;20027;-45
2023/03/15 08:05:37;;;;;;;3.15;1.45;;;;;;;;;;5129165;27;20042;-49
2023/03/15 08:08:04;;;;;;;1.73;1.27;;;;;;;;;;5129615;27;20509;-45
2023/03/15 08:10:30;;;;;;;2.60;1.23;;;;;;;;;;5129523;27;20034;-45
2023/03/15 08:12:56;;;;;;;3.28;1.48;;;;;;;;;;5127372;27;20074;-45
2023/03/15 08:15:22;;;;;;;3.80;1.50;;;;;;;;;;5127823;27;20051;-46
2023/03/15 08:17:49;;;;;;;2.42;1.42;;;;;;;;;;5110999;27;20027;-45
2023/03/15 08:20:19;;;;;;;1.27;1.15;;;;;;;;;;5107286;28;20024;-47
2023/03/15 08:22:45;;;;;;;1.33;0.80;;;;;;;;;;5107021;28;20030;-46
2023/03/15 08:25:12;;;;;;;3.38;1.25;;;;;;;;;;5119607;27;20075;-45
2023/03/15 08:27:39;;;;;;;2.33;1.00;;;;;;;;;;5127422;28;20530;-45
2023/03/15 08:30:05;;;;;;;1.95;1.10;;;;;;;;;;5127567;28;20030;-45
2023/03/15 08:32:32;;;;;;;1.50;0.80;;;;;;;;;;5127271;27;20024;-47
2023/03/15 08:34:58;;;;;;;3.03;1.58;;;;;;;;;;5127553;28;20056;-46
2023/03/15 08:37:24;;;;;;;1.85;0.90;;;;;;;;;;5127858;28;20027;-47
2023/03/15 08:39:59;;;;;;;1.98;0.80;;;;;;;;;;5127672;27;20385;-46
2023/03/15 08:42:25;;;;;;;3.70;1.65;;;;;;;;;;5127316;28;20522;-45
2023/03/15 08:44:51;;;;;;;1.60;1.10;;;;;;;;;;5126859;27;20030;-46
2023/03/15 08:47:17;;;;;;;2.63;1.10;;;;;;;;;;5117715;27;20043;-48
2023/03/15 08:49:43;;;;;;;1.35;0.95;;;;;;;;;;5104227;28;20444;-45
2023/03/15 08:52:10;;;;;;;1.63;1.10;;;;;;;;;;5128660;27;20152;-45
2023/03/15 08:54:36;;;;;;;2.25;0.85;;;;;;;;;;5125883;27;20110;-45
2023/03/15 08:57:03;;;;;;;2.17;1.10;;;;;;;;;;5125749;27;20015;-45
2023/03/15 08:59:31;;;;;;;1.92;1.05;;;;;;;;;;5123206;27;20031;-44
2023/03/15 09:01:58;;;;;;;1.20;0.98;;;;;;;;;;5125800;28;20386;-45
2023/03/15 09:04:24;;;;;;;1.80;1.00;;;;;;;;;;5125928;27;20035;-46
2023/03/15 09:06:50;;;;;;;2.55;1.00;;;;;;;;;;5125765;28;20224;-46
2023/03/15 09:09:16;;;;;;;1.65;0.90;;;;;;;;;;5123607;28;20183;-46
2023/03/15 09:11:43;;;;;;;3.15;0.77;;;;;;;;;;5123985;28;20099;-45
2023/03/15 09:14:09;;;;;;;0.77;0.60;;;;;;;;;;5120308;28;20480;-45
2023/03/15 09:16:35;;;;;;;1.05;0.73;;;;;;;;;;5127083;28;20483;-45
2023/03/15 09:19:01;;;;;;;1.70;0.80;;;;;;;;;;5127881;28;20023;-44
2023/03/15 09:21:27;;;;;;;3.55;1.15;;;;;;;;;;5123288;28;20038;-45
2023/03/15 09:23:53;;;;;;;2.50;0.80;;;;;;;;;;5113258;28;20034;-47
2023/03/15 09:26:19;;;;;;;1.98;1.00;;;;;;;;;;5127002;27;20059;-46
2023/03/15 09:28:45;;;;;;;1.95;1.00;;;;;;;;;;5126597;27;20035;-47
2023/03/15 09:31:11;;;;;;;1.73;1.10;;;;;;;;;;5128299;27;20019;-45
2023/03/15 09:33:37;;;;;;;2.40;0.90;;;;;;;;;;5129248;27;20067;-45
2023/03/15 09:36:04;;;;;;;2.08;0.90;;;;;;;;;;5134603;27;20031;-45
2023/03/15 09:38:31;;;;;;;1.40;0.70;;;;;;;;;;5129998;27;20046;-45
2023/03/15 09:40:58;;;;;;;0.90;0.70;;;;;;;;;;5129717;27;20121;-46
2023/03/15 09:43:42;;;;;;;1.63;0.93;;;;;;;;;;5130218;27;20034;-45
2023/03/15 09:46:28;;;;;;;1.27;0.90;;;;;;;;;;5123144;27;20521;-45
2023/03/15 09:49:16;;;;;;;1.42;0.70;;;;;;;;;;5128695;27;20102;-47
2023/03/15 09:51:49;;;;;;;0.95;0.70;;;;;;;;;;5129600;27;20027;-45
2023/03/15 09:54:17;;;;;;;0.50;0.50;;;;;;;;;;5129907;27;20501;-45
2023/03/15 09:56:47;;;;;;;1.30;0.80;;;;;;;;;;5129147;27;20027;-46
2023/03/15 09:59:16;;;;;;;0.50;0.50;;;;;;;;;;5129451;27;20541;-47
2023/03/15 10:01:42;;;;;;;1.60;0.90;;;;;;;;;;5130507;27;20015;-45
2023/03/15 10:04:33;;;;;;;0.95;0.70;;;;;;;;;;5130651;27;20118;-46
2023/03/15 10:07:01;;;;;;;2.47;1.08;;;;;;;;;;5119550;27;20063;-45
2023/03/15 10:09:32;;;;;;;1.15;0.70;;;;;;;;;;5125576;27;20498;-45
2023/03/15 10:12:17;;;;;;;1.35;0.80;;;;;;;;;;5111828;27;20100;-45
2023/03/15 10:15:08;;;;;;;1.63;0.73;;;;;;;;;;5122068;27;20033;-46
2023/03/15 10:17:37;;;;;;;2.60;0.85;;;;;;;;;;5127716;27;20088;-46
2023/03/15 10:20:10;;;;;;;2.08;1.00;;;;;;;;;;5128131;27;20087;-47
2023/03/15 10:22:40;;;;;;;1.50;0.80;;;;;;;;;;5128785;27;20027;-46
2023/03/15 10:25:14;;;;;;;1.52;0.90;;;;;;;;;;5128270;27;20373;-45
2023/03/15 10:27:47;;;;;;;2.50;1.05;;;;;;;;;;5127819;27;20444;-45
2023/03/15 10:30:24;;;;;;;0.98;0.70;;;;;;;;;;5113072;27;20154;-45
2023/03/15 10:33:02;;;;;;;1.45;0.73;;;;;;;;;;5124065;27;20027;-47
2023/03/15 10:35:28;;;;;;;1.10;0.60;;;;;;;;;;5127827;27;20098;-45
2023/03/15 10:37:54;;;;;;;0.70;0.50;;;;;;;;;;5127572;27;20023;-45
2023/03/15 10:40:40;;;;;;;1.02;0.60;;;;;;;;;;5127625;27;20066;-45
2023/03/15 10:43:25;;;;;;;0.90;0.57;;;;;;;;;;5128188;27;20027;-47
2023/03/15 10:46:00;;;;;;;0.60;0.60;;;;;;;;;;5127664;27;20031;-45
2023/03/15 10:48:27;;;;;;;1.33;0.50;;;;;;;;;;5127307;27;20027;-45
2023/03/15 10:50:54;;;;;;;2.67;0.80;;;;;;;;;;5127766;27;20051;-47
2023/03/15 10:53:20;;;;;;;2.67;0.85;;;;;;;;;;5127222;27;20527;-46
2023/03/15 10:55:47;;;;;;;1.10;0.70;;;;;;;;;;5127984;27;20023;-46
2023/03/15 10:58:16;;;;;;;2.75;0.70;;;;;;;;;;5128661;27;20035;-47
2023/03/15 11:00:49;;;;;;;1.15;0.50;;;;;;;;;;5127960;27;20033;-48
2023/03/15 11:03:17;;;;;;;0.73;0.65;;;;;;;;;;5126151;27;20049;-46
2023/03/15 11:05:45;;;;;;;1.17;0.60;;;;;;;;;;5122220;27;20028;-47
2023/03/15 11:08:14;;;;;;;1.85;0.80;;;;;;;;;;5128340;27;20027;-46
2023/03/15 11:10:40;;;;;;;0.45;0.40;;;;;;;;;;5128033;27;20027;-46
2023/03/15 11:13:09;;;;;;;0.60;0.50;;;;;;;;;;5122406;27;20502;-46
2023/03/15 11:15:36;;;;;;;0.85;0.65;;;;;;;;;;5127613;27;20023;-48
2023/03/15 11:18:03;;;;;;;2.38;0.80;;;;;;;;;;5117602;27;20414;-46
2023/03/15 11:20:29;;;;;;;2.80;0.95;;;;;;;;;;5124639;27;20015;-46
2023/03/15 11:22:56;;;;;;;1.70;0.68;;;;;;;;;;5128933;27;20019;-46
2023/03/15 11:25:25;;;;;;;1.67;0.80;;;;;;;;;;5128713;27;20064;-45
2023/03/15 11:27:52;;;;;;;0.55;0.43;;;;;;;;;;5128450;27;20053;-45
2023/03/15 11:30:21;;;;;;;1.05;0.43;;;;;;;;;;5128580;27;20106;-45
2023/03/15 11:32:47;;;;;;;1.30;0.75;;;;;;;;;;5127949;27;20027;-45
2023/03/15 11:35:23;;;;;;;0.60;0.50;;;;;;;;;;5128587;27;20033;-47
2023/03/15 11:37:56;;;;;;;0.68;0.52;;;;;;;;;;5128440;27;20038;-45
2023/03/15 11:40:25;;;;;;;0.90;0.50;;;;;;;;;;5127713;27;20027;-46
2023/03/15 11:42:51;;;;;;;1.17;0.60;;;;;;;;;;5128408;27;20042;-45
2023/03/15 11:45:26;;;;;;;0.93;0.40;;;;;;;;;;5128418;27;20509;-46
2023/03/15 11:48:02;;;;;;;0.95;0.55;;;;;;;;;;5128465;27;20023;-45
2023/03/15 11:50:29;;;;;;;0.98;0.40;;;;;;;;;;5128169;27;20016;-48
2023/03/15 11:53:01;;;;;;;0.65;0.40;;;;;;;;;;5128120;27;20163;-48
2023/03/15 11:55:28;;;;;;;0.55;0.30;;;;;;;;;;5127963;27;20497;-49
2023/03/15 11:57:54;;;;;;;0.35;0.30;;;;;;;;;;5127679;27;20023;-47
2023/03/15 12:00:35;;;;;;;0.60;0.40;;;;;;;;;;5128028;27;20035;-45
2023/03/15 12:03:20;;;;;;;0.90;0.65;;;;;;;;;;5128103;27;20031;-45
2023/03/15 12:05:49;;;;;;;1.17;0.40;;;;;;;;;;5128353;27;20069;-47
2023/03/15 12:08:18;;;;;;;1.40;0.50;;;;;;;;;;5127603;27;20363;-45
2023/03/15 12:10:48;;;;;;;0.43;0.40;;;;;;;;;;5127653;27;20027;-46
2023/03/15 12:13:35;;;;;;;0.30;0.30;;;;;;;;;;5116100;27;20093;-47
2023/03/15 12:16:01;;;;;;;2.30;0.70;;;;;;;;;;5127294;27;20549;-46
2023/03/15 12:18:31;;;;;;;1.20;0.60;;;;;;;;;;5126266;27;20106;-46
2023/03/15 12:21:05;;;;;;;1.90;0.60;;;;;;;;;;5126558;27;20106;-47
2023/03/15 12:23:39;;;;;;;0.88;0.50;;;;;;;;;;5125048;27;20031;-48
2023/03/15 12:26:06;;;;;;;;;;;;;;;;;;5126822;27;20031;-46
2023/03/15 12:28:49;;;;;;;1.65;0.70;;;;;;;;;;5125754;27;19934;-46
2023/03/15 12:31:16;;;;;;;0.40;0.40;;;;;;;;;;5125980;28;20033;-47
2023/03/15 12:33:53;;;;;;;1.17;0.50;;;;;;;;;;5125643;28;20039;-46
2023/03/15 12:36:40;;;;;;;0.80;0.40;;;;;;;;;;5126823;28;20439;-47
2023/03/15 12:39:09;;;;;;;0.85;0.40;;;;;;;;;;5125926;28;20023;-46
2023/03/15 12:41:40;;;;;;;1.17;0.45;;;;;;;;;;5125766;27;20031;-46
2023/03/15 12:44:21;;;;;;;1.45;0.52;;;;;;;;;;5126088;27;20031;-47
2023/03/15 12:46:48;;;;;;;0.47;0.40;;;;;;;;;;5126713;28;20027;-46
2023/03/15 12:49:23;;;;;;;1.58;0.70;;;;;;;;;;5125936;28;20383;-45
2023/03/15 12:51:57;;;;;;;0.82;0.40;;;;;;;;;;5126520;27;20480;-47
2023/03/15 12:54:26;;;;;;;0.30;0.30;;;;;;;;;;5125627;28;20027;-46
2023/03/15 12:57:03;;;;;;;0.60;0.40;;;;;;;;;;5125789;28;20558;-45
2023/03/15 12:59:32;;;;;;;0.30;0.30;;;;;;;;;;5124502;27;20048;-47
2023/03/15 13:01:59;;;;;;;0.30;0.30;;;;;;;;;;5125765;27;20490;-47
2023/03/15 13:04:29;;;;;;;0.50;0.30;;;;;;;;;;5125682;27;20510;-46
2023/03/15 13:06:58;;;;;;;0.40;0.40;;;;;;;;;;5125753;27;20066;-46
2023/03/15 13:09:24;;;;;;;0.85;0.52;;;;;;;;;;5127953;27;20027;-47
2023/03/15 13:11:56;;;;;;;0.95;0.50;;;;;;;;;;5130228;27;20125;-48
2023/03/15 13:14:28;;;;;;;0.30;0.30;;;;;;;;;;5130006;27;20027;-47
2023/03/15 13:17:03;;;;;;;0.57;0.40;;;;;;;;;;5130058;27;20473;-48
2023/03/15 13:19:37;;;;;;;1.52;0.50;;;;;;;;;;5130017;27;20024;-46
2023/03/15 13:22:09;;;;;;;1.02;0.47;;;;;;;;;;5129422;27;20034;-46
2023/03/15 13:24:51;;;;;;;0.65;0.43;;;;;;;;;;5129206;27;20413;-47
2023/03/15 13:27:28;;;;;;;0.30;0.30;;;;;;;;;;5098280;27;20382;-48
2023/03/15 13:29:55;;;;;;;0.50;0.50;;;;;;;;;;5108601;28;20383;-46
2023/03/15 13:32:23;;;;;;;0.40;0.40;;;;;;;;;;5124889;27;20035;-48
2023/03/15 13:34:49;;;;;;;0.47;0.40;;;;;;;;;;5129835;27;20242;-46
2023/03/15 13:37:25;;;;;;;0.40;0.30;;;;;;;;;;5129412;27;20065;-48
2023/03/15 13:39:55;;;;;;;0.52;0.40;;;;;;;;;;5128357;27;20027;-46
2023/03/15 13:42:24;;;;;;;0.40;0.40;;;;;;;;;;5129310;27;20038;-46
2023/03/15 13:45:08;;;;;;;1.17;0.82;;;;;;;;;;5129882;27;20030;-47
2023/03/15 13:47:34;;;;;;;0.57;0.50;;;;;;;;;;5129181;27;20469;-46
2023/03/15 13:50:03;;;;;;;0.65;0.45;;;;;;;;;;5128957;27;20097;-46
2023/03/15 13:52:29;;;;;;;0.57;0.40;;;;;;;;;;5129268;27;20034;-48
2023/03/15 13:54:56;;;;;;;0.63;0.50;;;;;;;;;;5129021;27;20023;-47
2023/03/15 13:57:23;;;;;;;0.77;0.60;;;;;;;;;;5129553;27;20038;-46
2023/03/15 13:59:52;;;;;;;0.93;0.40;;;;;;;;;;5129362;27;20200;-47
2023/03/15 14:02:38;;;;;;;0.65;0.50;;;;;;;;;;5129433;27;20486;-46
2023/03/15 14:05:09;;;;;;;0.70;0.47;;;;;;;;;;5128627;27;20073;-47
2023/03/15 14:07:40;;;;;;;0.50;0.40;;;;;;;;;;5128807;27;20086;-48
2023/03/15 14:10:08;;;;;;;0.80;0.40;;;;;;;;;;5128489;27;20038;-49
2023/03/15 14:12:34;;;;;;;0.68;0.50;;;;;;;;;;5128166;27;20039;-47
2023/03/15 14:15:00;;;;;;;0.57;0.40;;;;;;;;;;5128536;27;20095;-47
2023/03/15 14:17:27;;;;;;;2.15;0.95;;;;;;;;;;5128924;27;20023;-47
2023/03/15 14:19:55;;;;;;;2.10;1.08;;;;;;;;;;5128046;27;20058;-50
2023/03/15 14:22:21;;;;;;;1.55;0.85;;;;;;;;;;5128793;27;20027;-46
2023/03/15 14:24:49;;;;;;;2.13;0.95;;;;;;;;;;5125495;27;20647;-47
2023/03/15 14:27:17;;;;;;;0.82;0.60;;;;;;;;;;5129410;27;20678;-48
2023/03/15 14:29:52;;;;;;;0.50;0.50;;;;;;;;;;5129672;27;20076;-46
2023/03/15 14:32:23;;;;;;;1.40;0.70;;;;;;;;;;5129483;27;20053;-48
2023/03/15 14:34:49;;;;;;;1.42;0.50;;;;;;;;;;5109601;28;20063;-49
2023/03/15 14:37:30;;;;;;;0.68;0.50;;;;;;;;;;5108966;28;20682;-49
2023/03/15 14:40:08;;;;;;;0.50;0.50;;;;;;;;;;5108772;28;20027;-47
2023/03/15 14:42:34;;;;;;;1.27;0.50;;;;;;;;;;5107432;28;20023;-47
2023/03/15 14:45:00;;;;;;;0.47;0.30;;;;;;;;;;5124427;27;20031;-46
2023/03/15 14:47:26;;;;;;;1.02;0.47;;;;;;;;;;5127939;27;20035;-47
2023/03/15 14:49:52;;;;;;;0.30;0.30;;;;;;;;;;5127948;27;20031;-45
2023/03/15 14:52:18;;;;;;;0.28;0.28;;;;;;;;;;5128239;27;20042;-48
2023/03/15 14:54:48;;;;;;;0.30;0.30;;;;;;;;;;5127755;27;20019;-48
2023/03/15 14:57:14;;;;;;;0.35;0.30;;;;;;;;;;5127696;27;20022;-47
2023/03/15 14:59:40;;;;;;;0.20;0.20;;;;;;;;;;5127686;27;20473;-47
2023/03/15 15:02:12;;;;;;;0.30;0.30;;;;;;;;;;5127547;27;20038;-46
2023/03/15 15:04:40;;;;;;;0.80;0.35;;;;;;;;;;5127632;27;20079;-47
2023/03/15 15:07:06;;;;;;;0.38;0.30;;;;;;;;;;5127438;27;20028;-47
2023/03/15 15:09:35;;;;;;;0.50;0.38;;;;;;;;;;5126961;27;20024;-47
2023/03/15 15:12:00;;;;;;;0.75;0.40;;;;;;;;;;5120096;27;20034;-47
2023/03/15 15:14:27;;;;;;;0.55;0.40;;;;;;;;;;5126783;27;20035;-47
2023/03/15 15:16:54;;;;;;;0.63;0.40;;;;;;;;;;5128415;27;20106;-48
2023/03/15 15:19:20;;;;;;;0.73;0.30;;;;;;;;;;5127466;27;20359;-49
2023/03/15 15:21:47;;;;;;;0.20;0.20;;;;;;;;;;5124360;27;20430;-47
2023/03/15 15:24:15;;;;;;;0.30;0.30;;;;;;;;;;5119543;27;20521;-47
2023/03/15 15:26:42;;;;;;;0.30;0.30;;;;;;;;;;5126873;27;20110;-48
2023/03/15 15:29:11;;;;;;;0.30;0.22;;;;;;;;;;5126948;27;20023;-46
2023/03/15 15:31:38;;;;;;;1.13;0.38;;;;;;;;;;5124671;27;20063;-47
2023/03/15 15:34:04;;;;;;;0.65;0.30;;;;;;;;;;5126875;27;20331;-51
2023/03/15 15:36:35;;;;;;;0.35;0.32;;;;;;;;;;5123485;27;20026;-50
2023/03/15 15:39:03;;;;;;;0.20;0.20;;;;;;;;;;5123382;27;20038;-47
2023/03/15 15:41:30;;;;;;;0.85;0.40;;;;;;;;;;5126515;27;20079;-50
2023/03/15 15:43:56;;;;;;;0.75;0.30;;;;;;;;;;5127172;27;20027;-49
2023/03/15 15:46:22;;;;;;;0.20;0.20;;;;;;;;;;5126840;27;20162;-46
2023/03/15 15:48:49;;;;;;;1.10;0.28;;;;;;;;;;5127330;27;20428;-47
2023/03/15 15:51:20;;;;;;;0.20;0.20;;;;;;;;;;5127221;27;20019;-47
2023/03/15 15:53:47;;;;;;;0.43;0.25;;;;;;;;;;5125935;27;20476;-48
2023/03/15 15:56:14;;;;;;;0.40;0.22;;;;;;;;;;5126352;27;20088;-48
2023/03/15 15:58:41;;;;;;;0.43;0.22;;;;;;;;;;5124240;27;20025;-47
2023/03/15 16:01:07;;;;;;;0.43;0.35;;;;;;;;;;5125437;27;20555;-48
2023/03/15 16:03:33;;;;;;;0.55;0.20;;;;;;;;;;5126366;27;20015;-50
2023/03/15 16:05:59;;;;;;;0.60;0.30;;;;;;;;;;5126228;27;20035;-49
2023/03/15 16:08:25;;;;;;;0.43;0.30;;;;;;;;;;5125060;27;20145;-47
2023/03/15 16:10:52;;;;;;;1.42;0.50;;;;;;;;;;5126359;27;20031;-49
2023/03/15 16:13:18;;;;;;;0.52;0.38;;;;;;;;;;5123690;27;20034;-51
2023/03/15 16:15:44;;;;;;;0.28;0.28;;;;;;;;;;5110007;27;20146;-47
2023/03/15 16:18:10;;;;;;;0.30;0.30;;;;;;;;;;5121020;27;20023;-48
2023/03/15 16:20:37;;;;;;;0.40;0.30;;;;;;;;;;5125583;27;20031;-47
2023/03/15 16:23:03;;;;;;;0.45;0.40;;;;;;;;;;5125401;27;20084;-51
2023/03/15 16:25:32;;;;;;;0.32;0.32;;;;;;;;;;5126099;27;20573;-50
2023/03/15 16:27:59;;;;;;;0.90;0.38;;;;;;;;;;5125202;27;20064;-48
2023/03/15 16:30:30;;;;;;;0.73;0.38;;;;;;;;;;5117656;28;20055;-48
2023/03/15 16:32:56;;;;;;;0.68;0.38;;;;;;;;;;5125952;28;20490;-49
2023/03/15 16:35:23;;;;;;;0.45;0.20;;;;;;;;;;5109572;28;20111;-47
2023/03/15 16:37:55;;;;;;;1.25;0.40;;;;;;;;;;5122076;27;20668;-48
2023/03/15 16:40:31;;;;;;;0.22;0.20;;;;;;;;;;5126130;28;20063;-50
2023/03/15 16:42:57;;;;;;;0.22;0.20;;;;;;;;;;5125758;27;20106;-51
2023/03/15 16:45:24;;;;;;;0.22;0.20;;;;;;;;;;5130174;27;20144;-50
2023/03/15 16:47:50;;;;;;;0.65;0.45;;;;;;;;;;5130184;27;20027;-47
2023/03/15 16:50:16;;;;;;;0.73;0.55;;;;;;;;;;5129855;27;20383;-48
2023/03/15 16:52:43;;;;;;;1.48;0.30;;;;;;;;;;5129942;27;20401;-48
2023/03/15 16:55:12;;;;;;;0.50;0.50;;;;;;;;;;5130457;27;20023;-46
2023/03/15 16:57:39;;;;;;;0.40;0.40;;;;;;;;;;5129118;27;20027;-46
2023/03/15 17:00:10;;;;;;;0.70;0.52;;;;;;;;;;5129962;27;20031;-46
2023/03/15 17:02:37;;;;;;;0.80;0.50;;;;;;;;;;5128768;27;20857;-47
2023/03/15 17:05:03;;;;;;;0.40;0.40;;;;;;;;;;5127709;27;20401;-46
2023/03/15 17:07:31;;;;;;;0.50;0.40;;;;;;;;;;5129098;27;20030;-46
2023/03/15 17:09:57;;;;;;;0.50;0.40;;;;;;;;;;5129557;27;20035;-48
2023/03/15 17:12:25;;;;;;;0.70;0.40;;;;;;;;;;5129522;27;20023;-47
2023/03/15 17:14:53;;;;;;;0.50;0.32;;;;;;;;;;5130170;27;20027;-46
2023/03/15 17:17:19;;;;;;;0.40;0.35;;;;;;;;;;5130225;27;20026;-46
2023/03/15 17:19:47;;;;;;;1.15;0.40;;;;;;;;;;5129618;27;20023;-46
2023/03/15 17:22:13;;;;;;;0.40;0.40;;;;;;;;;;5129309;27;20509;-48
2023/03/15 17:24:39;;;;;;;0.40;0.30;;;;;;;;;;5129597;27;20051;-48
2023/03/15 17:27:05;;;;;;;0.82;0.40;;;;;;;;;;5129219;27;20077;-48
2023/03/15 17:29:31;;;;;;;0.55;0.40;;;;;;;;;;5127239;27;20098;-50
2023/03/15 17:31:57;;;;;;;1.42;0.70;;;;;;;;;;5127723;27;20096;-47
2023/03/15 17:34:25;;;;;;;1.50;1.13;;;;;;;;;;5126388;27;20027;-50
2023/03/15 17:36:52;;;;;;;1.13;1.00;;;;;;;;;;5128796;27;20106;-48
2023/03/15 17:39:18;;;;;;;0.63;0.63;;;;;;;;;;5124456;27;20030;-47
2023/03/15 17:41:47;;;;;;;0.93;0.80;;;;;;;;;;5130429;27;20525;-47
2023/03/15 17:44:13;;;;;;;1.10;0.93;;;;;;;;;;5129867;27;20088;-50
2023/03/15 17:46:39;;;;;;;2.05;1.50;;;;;;;;;;5129465;27;20054;-50
2023/03/15 17:49:07;;;;;;;2.72;2.03;;;;;;;;;;5130706;27;20031;-46
2023/03/15 17:51:34;;;;;;;3.88;2.70;;;;;;;;;;5128999;27;20487;-50
2023/03/15 17:54:02;;;;;;;3.22;2.35;;;;;;;;;;5130189;27;20092;-47
2023/03/15 17:56:28;;;;;;;4.53;2.90;;;;;;;;;;5090360;28;20024;-51
2023/03/15 17:58:55;;;;;;;6.15;4.03;;;;;;;;;;5117349;27;20019;-48
2023/03/15 18:01:26;;;;;;;7.32;3.42;;;;;;;;;;5128639;27;20369;-47
2023/03/15 18:03:52;;;;;;;3.65;2.33;;;;;;;;;;5128128;27;20506;-47
2023/03/15 18:06:19;;;;;;;2.97;1.80;;;;;;;;;;5129032;27;20046;-47
2023/03/15 18:08:45;;;;;;;3.05;1.85;;;;;;;;;;5127478;27;20114;-47
2023/03/15 18:11:15;;;;;;;2.17;1.75;;;;;;;;;;5127731;27;20071;-47
2023/03/15 18:13:42;;;;;;;3.75;2.67;;;;;;;;;;5113538;27;20132;-47
2023/03/15 18:16:10;;;;;;;4.30;3.10;;;;;;;;;;5107664;27;20049;-50
2023/03/15 18:18:36;;;;;;;3.72;2.50;;;;;;;;;;5127647;27;20514;-46
2023/03/15 18:21:04;;;;;;;4.95;3.13;;;;;;;;;;5128167;27;20046;-49
2023/03/15 18:23:30;;;;;;;7.40;3.53;;;;;;;;;;5126873;27;20031;-47
2023/03/15 18:25:56;;;;;;;10.07;4.90;;;;;;;;;;5128325;27;20069;-46
2023/03/15 18:28:22;;;;;;;6.55;3.78;;;;;;;;;;5127096;27;20031;-46
2023/03/15 18:30:49;;;;;;;7.32;3.70;;;;;;;;;;5126274;27;20031;-50
2023/03/15 18:33:15;;;;;;;6.75;4.30;;;;;;;;;;5125725;27;20087;-47
2023/03/15 18:35:41;;;;;;;5.65;4.60;;;;;;;;;;5124724;27;20054;-48
2023/03/15 18:38:07;;;;;;;19.92;13.82;;;;;;;;;;5125455;27;20075;-46
2023/03/15 18:40:33;;;;;;;13.15;9.60;;;;;;;;;;5126397;27;20518;-47
2023/03/15 18:43:00;;;;;;;6.88;5.50;;;;;;;;;;5125478;27;20099;-49
2023/03/15 18:45:27;;;;;;;6.47;4.43;;;;;;;;;;5142163;27;20031;-47
2023/03/15 18:47:53;;;;;;;3.67;2.60;;;;;;;;;;5125602;27;20096;-50
2023/03/15 18:50:20;;;;;;;3.47;2.40;;;;;;;;;;5126933;27;20031;-45
2023/03/15 18:52:47;;;;;;;2.28;1.70;;;;;;;;;;5124730;27;20569;-50
2023/03/15 18:55:14;;;;;;;2.67;1.50;;;;;;;;;;5125842;27;20027;-47
2023/03/15 18:57:41;;;;;;;2.13;1.52;;;;;;;;;;5125903;27;20019;-47
2023/03/15 19:00:12;;;;;;;2.00;1.38;;;;;;;;;;5132212;27;20572;-47
2023/03/15 19:02:42;;;;;;;3.30;1.95;;;;;;;;;;5123429;27;20023;-48
2023/03/15 19:05:08;;;;;;;2.95;2.40;;;;;;;;;;5125199;27;20503;-48
2023/03/15 19:07:37;;;;;;;2.47;2.03;;;;;;;;;;5123704;27;20031;-48
2023/03/15 19:10:03;;;;;;;2.65;2.17;;;;;;;;;;5120339;27;20110;-47
2023/03/15 19:12:29;;;;;;;3.38;2.42;;;;;;;;;;5123141;27;20031;-47
2023/03/15 19:14:55;;;;;;;1.90;1.50;;;;;;;;;;5124927;27;20553;-50
2023/03/15 19:17:21;;;;;;;3.15;1.83;;;;;;;;;;5125873;27;20103;-48
2023/03/15 19:19:47;;;;;;;2.05;1.60;;;;;;;;;;5124973;27;20027;-47
2023/03/15 19:22:13;;;;;;;2.97;1.52;;;;;;;;;;5125265;27;20026;-46
2023/03/15 19:24:39;;;;;;;1.90;1.40;;;;;;;;;;5124557;27;20099;-49
2023/03/15 19:27:05;;;;;;;1.50;1.02;;;;;;;;;;5122547;27;20425;-46
2023/03/15 19:29:31;;;;;;;2.50;1.23;;;;;;;;;;5124871;27;20035;-48
2023/03/15 19:31:58;;;;;;;2.17;1.17;;;;;;;;;;5125048;27;20035;-49
2023/03/15 19:34:24;;;;;;;1.83;1.00;;;;;;;;;;5106212;27;20434;-49
2023/03/15 19:36:51;;;;;;;1.98;1.10;;;;;;;;;;5125005;27;20101;-47
2023/03/15 19:39:18;;;;;;;1.88;1.00;;;;;;;;;;5115299;27;20023;-47
2023/03/15 19:41:45;;;;;;;1.52;0.80;;;;;;;;;;5125365;27;20307;-46
2023/03/15 19:44:12;;;;;;;2.47;1.20;;;;;;;;;;5125416;27;20508;-50
2023/03/15 19:46:38;;;;;;;1.40;1.08;;;;;;;;;;5124854;27;20541;-49
2023/03/15 19:49:04;;;;;;;2.67;1.55;;;;;;;;;;5118836;27;20072;-46
2023/03/15 19:51:30;;;;;;;2.15;1.30;;;;;;;;;;5125340;27;20086;-46
2023/03/15 19:53:56;;;;;;;2.72;1.42;;;;;;;;;;5125172;27;20034;-46
2023/03/15 19:56:22;;;;;;;2.67;1.52;;;;;;;;;;5124054;27;20080;-46